createdAt,value
2022-07-29T00:02:18.704Z,64.86
2022-07-29T00:07:19.387Z,64.96
2022-07-29T00:12:25.419Z,65.36
2022-07-29T00:17:21.721Z,65.90
2022-07-29T00:22:21.416Z,66.00
2022-07-29T00:27:22.145Z,66.00
2022-07-29T00:32:22.892Z,65.90
2022-07-29T00:37:23.626Z,66.30
2022-07-29T00:42:24.372Z,66.41
2022-07-29T00:47:25.057Z,66.91
2022-07-29T00:52:25.805Z,67.65
2022-07-29T00:57:26.545Z,68.16
2022-07-29T01:02:27.345Z,68.90
2022-07-29T01:07:28.065Z,69.34
2022-07-29T01:12:28.795Z,69.20
2022-07-29T01:17:29.511Z,69.41
2022-07-29T01:22:30.222Z,69.51
2022-07-29T01:27:30.962Z,70.05
2022-07-29T01:32:31.735Z,70.15
2022-07-29T01:37:32.397Z,70.25
2022-07-29T01:42:33.150Z,70.45
2022-07-29T01:47:33.850Z,70.25
2022-07-29T01:52:34.560Z,70.56
2022-07-29T01:57:35.306Z,70.45
2022-07-29T02:02:36.026Z,71.60
2022-07-29T02:07:36.750Z,71.94
2022-07-29T02:12:37.489Z,72.01
2022-07-29T02:17:38.772Z,72.14
2022-07-29T02:22:39.005Z,72.25
2022-07-29T02:27:46.696Z,72.14
2022-07-29T02:32:40.331Z,72.55
2022-07-29T02:37:40.835Z,73.19
2022-07-29T02:42:41.517Z,72.96
2022-07-29T02:47:42.323Z,72.75
2022-07-29T02:52:43.039Z,72.75
2022-07-29T02:57:53.798Z,72.34
2022-07-29T03:02:45.288Z,72.21
2022-07-29T03:07:44.966Z,72.01
2022-07-29T03:12:45.609Z,72.01
2022-07-29T03:17:46.273Z,72.75
2022-07-29T03:22:46.941Z,72.96
2022-07-29T03:27:47.620Z,72.85
2022-07-29T03:32:48.271Z,73.36
2022-07-29T03:37:49.175Z,73.16
2022-07-29T03:42:49.794Z,72.96
2022-07-29T03:47:52.870Z,72.75
2022-07-29T03:52:51.392Z,72.96
2022-07-29T03:57:52.058Z,73.16
2022-07-29T04:02:52.752Z,72.85
2022-07-29T04:07:53.475Z,72.55
2022-07-29T04:12:54.270Z,72.52
2022-07-29T04:17:54.955Z,72.96
2022-07-29T04:22:55.685Z,73.36
2022-07-29T04:27:56.315Z,72.31
2022-07-29T04:32:56.980Z,71.47
2022-07-29T04:37:57.663Z,70.72
2022-07-29T04:42:58.326Z,70.21
2022-07-29T04:47:59.184Z,69.37
2022-07-29T04:52:59.931Z,68.97
2022-07-29T04:58:00.670Z,68.73
2022-07-29T05:03:01.275Z,68.43
2022-07-29T05:08:02.103Z,68.23
2022-07-29T05:13:02.796Z,67.08
2022-07-29T05:18:03.437Z,66.41
2022-07-29T05:23:04.109Z,65.37
2022-07-29T05:28:04.774Z,63.26
2022-07-29T05:33:05.484Z,63.62
2022-07-29T05:38:06.295Z,64.23
2022-07-29T05:43:06.668Z,64.13
2022-07-29T05:48:07.348Z,64.13
2022-07-29T05:53:19.353Z,64.33
2022-07-29T05:58:09.478Z,64.33
2022-07-29T06:03:09.115Z,63.59
2022-07-29T06:08:09.785Z,62.45
2022-07-29T06:13:10.439Z,61.39
2022-07-29T06:18:11.214Z,60.25
2022-07-29T06:23:11.954Z,59.84
2022-07-29T06:28:12.620Z,59.06
2022-07-29T06:33:13.295Z,58.05
2022-07-29T06:38:31.094Z,58.15
2022-07-29T06:43:15.518Z,57.45
2022-07-29T06:48:15.204Z,57.85
2022-07-29T06:53:15.953Z,58.25
2022-07-29T06:58:16.664Z,57.42
2022-07-29T07:03:17.378Z,56.79
2022-07-29T07:08:18.137Z,55.46
2022-07-29T07:13:18.824Z,54.72
2022-07-29T07:18:19.449Z,54.17
2022-07-29T07:23:20.131Z,52.52
2022-07-29T07:28:24.856Z,51.76
2022-07-29T07:33:21.370Z,52.57
2022-07-29T07:38:22.296Z,53.05
2022-07-29T07:43:23.091Z,52.55
2022-07-29T07:48:23.884Z,50.69
2022-07-29T07:53:24.660Z,50.07
2022-07-29T07:58:25.372Z,49.26
2022-07-29T08:03:25.986Z,48.64
2022-07-29T08:08:26.676Z,46.31
2022-07-29T08:13:27.369Z,45.09
2022-07-29T08:18:28.045Z,44.67
2022-07-29T08:23:45.571Z,44.23
2022-07-29T08:34:19.155Z,41.91
2022-07-29T08:45:10.712Z,41.28
2022-07-29T08:50:10.506Z,40.46
2022-07-29T08:55:26.983Z,39.34
2022-07-29T09:00:20.742Z,38.15
2022-07-29T09:05:12.387Z,39.36
2022-07-29T09:10:13.102Z,38.27
2022-07-29T09:15:14.765Z,38.67
2022-07-29T09:20:14.460Z,39.14
2022-07-29T09:25:15.157Z,37.71
2022-07-29T09:30:15.901Z,37.20
2022-07-29T09:35:18.389Z,37.00
2022-07-29T09:40:18.069Z,36.30
2022-07-29T09:45:17.805Z,36.58
2022-07-29T09:50:18.557Z,35.49
2022-07-29T09:55:19.793Z,34.50
2022-07-29T10:00:20.250Z,35.19
2022-07-29T10:05:20.925Z,34.98
2022-07-29T10:10:21.603Z,34.06
2022-07-29T10:15:22.285Z,33.95
2022-07-29T10:20:22.962Z,33.36
2022-07-29T10:25:23.660Z,33.54
2022-07-29T10:30:24.785Z,31.47
2022-07-29T10:35:24.973Z,32.08
2022-07-29T10:40:25.649Z,32.38
2022-07-29T10:45:26.195Z,31.67
2022-07-29T10:50:26.944Z,31.75
2022-07-29T10:55:27.599Z,30.84
2022-07-29T11:00:28.273Z,30.63
2022-07-29T11:05:39.844Z,31.14
2022-07-29T11:10:31.410Z,31.84
2022-07-29T11:15:31.636Z,31.62
2022-07-29T11:20:30.882Z,31.93
2022-07-29T11:25:42.888Z,31.54
2022-07-29T11:30:33.305Z,31.32
2022-07-29T11:40:34.544Z,32.14
2022-07-29T11:45:44.922Z,32.10
2022-07-29T11:50:35.685Z,32.68
2022-07-29T11:55:36.349Z,32.98
2022-07-29T12:00:36.887Z,31.97
2022-07-29T12:05:37.333Z,32.98
2022-07-29T12:10:37.524Z,33.67
2022-07-29T12:15:46.187Z,34.17
2022-07-29T12:20:39.939Z,33.73
2022-07-29T12:25:39.544Z,34.73
2022-07-29T12:30:40.398Z,34.92
2022-07-29T12:35:41.338Z,35.53
2022-07-29T12:46:31.185Z,35.00
2022-07-29T12:51:32.061Z,34.73
2022-07-29T12:56:42.787Z,35.32
2022-07-29T13:01:34.487Z,35.72
2022-07-29T13:06:34.508Z,36.15
2022-07-29T13:11:34.858Z,35.63
2022-07-29T13:16:36.236Z,35.61
2022-07-29T13:21:36.328Z,34.33
2022-07-29T13:26:37.586Z,35.24
2022-07-29T13:31:37.583Z,36.35
2022-07-29T13:36:41.585Z,35.32
2022-07-29T13:41:39.846Z,34.81
2022-07-29T13:46:40.450Z,35.52
2022-07-29T13:51:42.266Z,36.03
2022-07-29T13:56:41.419Z,36.31
2022-07-29T14:01:46.518Z,35.07
2022-07-29T14:06:42.042Z,34.79
2022-07-29T14:11:43.283Z,33.77
2022-07-29T14:16:52.061Z,33.58
2022-07-29T14:21:45.655Z,34.27
2022-07-29T14:26:46.300Z,33.65
2022-07-29T14:31:45.739Z,33.15
2022-07-29T14:36:53.361Z,33.33
2022-07-29T14:41:47.029Z,33.75
2022-07-29T14:46:47.726Z,33.47
2022-07-29T14:51:48.599Z,34.10
2022-07-29T14:56:51.292Z,33.59
2022-07-29T15:01:50.098Z,32.90
2022-07-29T15:06:50.824Z,32.68
2022-07-29T15:11:51.497Z,33.29
2022-07-29T15:16:52.910Z,33.28
2022-07-29T15:21:53.978Z,33.09
2022-07-29T15:26:53.179Z,33.29
2022-07-29T15:31:53.911Z,33.21
2022-07-29T15:36:54.617Z,34.03
2022-07-29T15:41:55.404Z,34.12
2022-07-29T15:46:56.421Z,33.82
2022-07-29T15:51:59.886Z,33.92
2022-07-29T15:56:57.448Z,34.33
2022-07-29T16:01:57.994Z,34.94
2022-07-29T16:06:59.198Z,34.86
2022-07-29T16:11:59.290Z,34.97
2022-07-29T16:17:00.454Z,34.95
2022-07-29T16:22:00.433Z,34.34
2022-07-29T16:27:01.587Z,34.13
2022-07-29T16:32:02.100Z,34.15
2022-07-29T16:37:03.149Z,34.25
2022-07-29T16:42:05.492Z,34.86
2022-07-29T16:47:04.281Z,34.66
2022-07-29T16:52:05.001Z,34.76
2022-07-29T16:57:05.671Z,34.95
2022-07-29T17:02:06.334Z,34.66
2022-07-29T17:07:07.065Z,34.76
2022-07-29T17:12:07.718Z,34.66
2022-07-29T17:17:12.258Z,33.87
2022-07-29T17:22:15.514Z,34.17
2022-07-29T17:27:10.475Z,34.78
2022-07-29T17:32:10.213Z,34.97
2022-07-29T17:37:11.014Z,35.09
2022-07-29T17:42:11.799Z,35.21
2022-07-29T17:47:15.708Z,34.91
2022-07-29T17:52:13.557Z,34.30
2022-07-29T17:57:14.369Z,34.40
2022-07-29T18:02:15.426Z,34.71
2022-07-29T18:07:16.001Z,34.92
2022-07-29T18:12:16.289Z,35.34
2022-07-29T18:17:17.095Z,35.24
2022-07-29T18:22:17.864Z,35.66
2022-07-29T18:27:18.555Z,35.85
2022-07-29T18:32:19.158Z,36.07
2022-07-29T18:38:02.168Z,36.36
2022-07-29T18:42:21.476Z,36.38
2022-07-29T18:47:21.292Z,36.58
2022-07-29T18:52:21.987Z,36.70
2022-07-29T18:57:56.289Z,36.90
2022-07-29T19:02:24.718Z,37.32
2022-07-29T19:07:24.136Z,37.81
2022-07-29T19:12:24.818Z,38.33
2022-07-29T19:17:26.654Z,38.84
2022-07-29T19:22:26.342Z,39.44
2022-07-29T19:27:27.013Z,39.96
2022-07-29T19:32:27.789Z,40.46
2022-07-29T19:37:28.450Z,40.88
2022-07-29T19:42:29.148Z,41.19
2022-07-29T19:47:29.870Z,41.69
2022-07-29T19:52:30.646Z,42.11
2022-07-29T19:57:40.508Z,42.41
2022-07-29T20:02:33.198Z,42.73
2022-07-29T20:07:32.514Z,42.93
2022-07-29T20:12:35.382Z,43.15
2022-07-29T20:17:34.385Z,43.25
2022-07-29T20:22:35.936Z,43.55
2022-07-29T20:27:35.799Z,43.77
2022-07-29T20:32:36.677Z,43.87
2022-07-29T20:37:56.193Z,44.07
2022-07-29T20:42:39.318Z,44.09
2022-07-29T20:47:38.681Z,44.20
2022-07-29T20:52:41.358Z,44.49
2022-07-29T20:57:40.291Z,44.39
2022-07-29T21:02:41.309Z,44.20
2022-07-29T21:07:41.757Z,43.70
2022-07-29T21:12:42.576Z,43.40
2022-07-29T21:17:43.402Z,42.99
2022-07-29T21:22:44.233Z,42.79
2022-07-29T21:27:44.972Z,42.69
2022-07-29T21:32:45.752Z,42.69
2022-07-29T21:37:46.506Z,43.09
2022-07-29T21:42:47.273Z,42.60
2022-07-29T21:47:47.977Z,42.69
2022-07-29T21:52:48.754Z,42.52
2022-07-29T21:57:49.600Z,42.52
2022-07-29T22:02:50.398Z,42.52
2022-07-29T22:07:55.490Z,42.61
2022-07-29T22:12:52.708Z,42.82
2022-07-29T22:17:59.521Z,43.01
2022-07-29T22:22:53.272Z,43.24
2022-07-29T22:27:53.978Z,43.33
2022-07-29T22:32:54.679Z,43.43
2022-07-29T22:37:55.412Z,43.54
2022-07-29T22:42:56.134Z,43.63
2022-07-29T22:47:59.150Z,43.54
2022-07-29T22:52:57.738Z,43.66
2022-07-29T22:57:58.416Z,43.96
2022-07-29T23:02:59.243Z,43.96
2022-07-29T23:08:00.448Z,44.26
2022-07-29T23:13:00.808Z,44.46
2022-07-29T23:18:01.541Z,44.68
2022-07-29T23:23:02.285Z,45.18
2022-07-29T23:28:02.984Z,45.38
2022-07-29T23:33:03.698Z,45.70
2022-07-29T23:38:04.406Z,45.90
2022-07-29T23:43:06.031Z,46.20
2022-07-29T23:48:06.094Z,46.50
2022-07-29T23:53:06.834Z,46.62
2022-07-29T23:58:07.564Z,46.93
